首页
METAR-TAF:

METAR-TAF

机场 :

Türkmenbaşy, 土库曼斯坦

纬度: 40-03-48N, 经度: 053-00-26E, 海拔: 86米

当前天气观测

该预报发布于12分钟前的01:00 UTC
风速6节,风向西转西北
温度 17°C
湿度 88%
气压 1009 hPa
能见度10公里或以上
1500米以下无云,无积雨云

METAR: UTAK 310100Z 30006KT CAVOK 17/15 Q1009 R34L/CLRD70 NOSIG

时间: 06:12 (01:12 UTC)

预报

该预报发布于2小时和42分钟前的22:30 UTC
预报有效从31日的 00点(UTC)到 31日的 24点(UTC)
风速18节,风向,有时为28节阵风
能见度10公里或以上
散云层高于2600英尺
多云层高于10000英尺
短暂存在
从 31日的 00点(UTC)到 31日的 04点(UTC)
风速18节,风向东北,有时为28节阵风
能見度: 3000
多云层高于300英尺
轻雾
短暂存在
从 31日的 04点(UTC)到 31日的 09点(UTC)
风速18节,风向东转东南,有时为28节阵风
能見度: 6000
多云层高于2600英尺
多云层高于10000英尺

TAF: UTAK 302230Z 3100/3124 36018G28KT 9999 SCT026 BKN100 TEMPO 3100/3104 04018G28KT 3000 BR BKN003 TEMPO 3104/3109 12018G28KT 6000 BKN026 BKN100

超过4000个机场的气象观测和天气预报(METAR&TAF报告)。

可查询的气象台以黄色和红色小点在地图上表示。

将鼠标移到小点上方,可查看气象台名称。

然后点击查看天气观测和预报。

如需切换地图:点击带黑十字的绿色按钮放大地图;点击带横线的绿色按钮缩小地图;或者点击绿色箭头查看邻近地区的地图。


METAR-TAF: